createdAt,value
2023-02-03T00:02:17.957Z,103138.41
2023-02-03T00:04:45.518Z,103139.16
2023-02-03T00:07:14.247Z,103145.34
2023-02-03T00:09:41.820Z,103139.63
2023-02-03T00:12:09.886Z,103139.28
2023-02-03T00:14:38.151Z,103146.06
2023-02-03T00:17:06.317Z,103138.25
2023-02-03T00:19:33.731Z,103130.28
2023-02-03T00:22:01.286Z,103132.66
2023-02-03T00:24:28.767Z,103137.81
2023-02-03T00:26:56.346Z,103127.44
2023-02-03T00:29:26.124Z,103128.50
2023-02-03T00:31:54.722Z,103135.28
2023-02-03T00:34:22.397Z,103141.00
2023-02-03T00:36:49.877Z,103142.84
2023-02-03T00:39:17.144Z,103141.69
2023-02-03T00:41:44.860Z,103136.97
2023-02-03T00:44:12.248Z,103138.78
2023-02-03T00:46:39.887Z,103142.66
2023-02-03T00:49:07.817Z,103138.09
2023-02-03T00:51:35.604Z,103141.31
2023-02-03T00:54:03.055Z,103139.44
2023-02-03T00:56:30.645Z,103137.66
2023-02-03T00:58:58.293Z,103135.72
2023-02-03T01:01:25.778Z,103129.53
2023-02-03T01:03:54.624Z,103130.50
2023-02-03T01:06:22.989Z,103135.03
2023-02-03T01:08:50.527Z,103138.47
2023-02-03T01:11:27.297Z,103131.63
2023-02-03T01:13:56.400Z,103141.00
2023-02-03T01:16:26.483Z,103132.84
2023-02-03T01:18:55.719Z,103140.59
2023-02-03T01:21:26.031Z,103147.53
2023-02-03T01:23:54.372Z,103138.72
2023-02-03T01:26:23.968Z,103133.50
2023-02-03T01:28:55.704Z,103125.69
2023-02-03T01:31:29.264Z,103117.13
2023-02-03T01:33:57.621Z,103122.44
2023-02-03T01:36:26.718Z,103123.22
2023-02-03T01:38:54.535Z,103124.94
2023-02-03T01:41:29.577Z,103132.69
2023-02-03T01:43:59.017Z,103124.66
2023-02-03T01:46:45.040Z,103112.34
2023-02-03T01:49:32.207Z,103120.16
2023-02-03T01:52:00.223Z,103118.38
2023-02-03T01:54:31.933Z,103124.50
2023-02-03T01:57:03.209Z,103104.28
2023-02-03T01:59:32.981Z,103114.81
2023-02-03T02:02:02.071Z,103106.97
2023-02-03T02:04:43.250Z,103113.00
2023-02-03T02:07:11.573Z,103103.47
2023-02-03T02:09:41.571Z,103104.22
2023-02-03T02:12:11.675Z,103112.03
2023-02-03T02:14:41.487Z,103095.56
2023-02-03T02:17:42.369Z,103093.94
2023-02-03T02:20:32.618Z,103090.59
2023-02-03T02:23:24.588Z,103090.22
2023-02-03T02:26:21.318Z,103087.88
2023-02-03T02:29:01.375Z,103087.88
2023-02-03T02:31:48.406Z,103081.75
2023-02-03T02:34:33.533Z,103079.72
2023-02-03T02:37:24.020Z,103075.66
2023-02-03T02:39:55.032Z,103076.09
2023-02-03T02:42:39.603Z,103063.66
2023-02-03T02:45:17.777Z,103062.50
2023-02-03T02:47:46.572Z,103065.63
2023-02-03T02:50:25.528Z,103064.50
2023-02-03T02:52:55.092Z,103064.13
2023-02-03T02:55:28.018Z,103054.25
2023-02-03T02:58:06.269Z,103053.63
2023-02-03T03:00:36.590Z,103049.13
2023-02-03T03:03:16.908Z,103050.84
2023-02-03T03:05:54.028Z,103054.25
2023-02-03T03:08:41.263Z,103066.19
2023-02-03T03:11:09.136Z,103067.00
2023-02-03T03:13:42.381Z,103062.44
2023-02-03T03:16:12.751Z,103060.00
2023-02-03T03:19:00.774Z,103053.00
2023-02-03T03:21:37.359Z,103063.50
2023-02-03T03:24:10.982Z,103065.94
2023-02-03T03:26:54.969Z,103064.97
2023-02-03T03:29:35.333Z,103068.72
2023-02-03T03:32:03.409Z,103066.09
2023-02-03T03:34:32.310Z,103066.94
2023-02-03T03:37:33.853Z,103068.72
2023-02-03T03:40:09.899Z,103065.28
2023-02-03T03:42:54.801Z,103070.44
2023-02-03T03:45:44.199Z,103060.00
2023-02-03T03:48:22.516Z,103063.50
2023-02-03T03:50:56.319Z,103055.97
2023-02-03T03:53:25.919Z,103056.88
2023-02-03T03:55:54.237Z,103064.84
2023-02-03T03:58:28.217Z,103068.03
2023-02-03T04:01:01.510Z,103065.66
2023-02-03T04:03:36.230Z,103059.00
2023-02-03T04:06:04.116Z,103054.25
2023-02-03T04:08:31.636Z,103055.34
2023-02-03T04:10:59.103Z,103042.19
2023-02-03T04:13:26.424Z,103048.03
2023-02-03T04:15:53.989Z,103047.41
2023-02-03T04:18:21.443Z,103052.88
2023-02-03T04:20:49.283Z,103044.91
2023-02-03T04:23:16.828Z,103049.16
2023-02-03T04:25:44.345Z,103056.75
2023-02-03T04:28:11.916Z,103057.94
2023-02-03T04:30:39.391Z,103070.16
2023-02-03T04:33:06.972Z,103071.13
2023-02-03T04:35:34.340Z,103071.69
2023-02-03T04:38:01.687Z,103075.28
2023-02-03T04:40:29.327Z,103077.72
2023-02-03T04:42:56.777Z,103065.59
2023-02-03T04:45:24.319Z,103064.63
2023-02-03T04:47:54.473Z,103062.16
2023-02-03T04:50:22.237Z,103057.28
2023-02-03T04:52:49.496Z,103061.47
2023-02-03T04:55:17.137Z,103062.75
2023-02-03T04:57:44.662Z,103063.41
2023-02-03T05:00:12.809Z,103067.75
2023-02-03T05:02:40.183Z,103055.59
2023-02-03T05:05:07.621Z,103057.44
2023-02-03T05:07:34.940Z,103055.50
2023-02-03T05:10:02.441Z,103055.41
2023-02-03T05:12:29.735Z,103058.91
2023-02-03T05:14:57.214Z,103062.97
2023-02-03T05:17:24.703Z,103055.16
2023-02-03T05:19:52.151Z,103056.13
2023-02-03T05:22:19.593Z,103058.09
2023-02-03T05:24:47.100Z,103057.13
2023-02-03T05:27:14.517Z,103057.38
2023-02-03T05:29:41.989Z,103053.97
2023-02-03T05:32:09.349Z,103061.63
2023-02-03T05:34:36.780Z,103058.13
2023-02-03T05:37:04.053Z,103064.25
2023-02-03T05:39:31.446Z,103068.56
2023-02-03T05:41:59.312Z,103077.03
2023-02-03T05:44:27.924Z,103073.53
2023-02-03T05:46:57.723Z,103074.28
2023-02-03T05:49:25.722Z,103067.50
2023-02-03T05:51:54.319Z,103075.34
2023-02-03T05:54:22.347Z,103075.94
2023-02-03T05:56:50.096Z,103080.63
2023-02-03T05:59:17.706Z,103081.28
2023-02-03T06:01:45.130Z,103081.28
2023-02-03T06:04:12.478Z,103079.66
2023-02-03T06:06:39.874Z,103079.81
2023-02-03T06:09:08.924Z,103078.00
2023-02-03T06:11:37.016Z,103090.22
2023-02-03T06:14:05.207Z,103091.88
2023-02-03T06:16:32.673Z,103092.69
2023-02-03T06:19:01.145Z,103092.91
2023-02-03T06:21:28.741Z,103089.56
2023-02-03T06:23:56.813Z,103075.72
2023-02-03T06:26:25.530Z,103078.63
2023-02-03T06:28:53.093Z,103085.00
2023-02-03T06:31:20.793Z,103087.09
2023-02-03T06:33:48.424Z,103087.97
2023-02-03T06:36:15.870Z,103096.13
2023-02-03T06:38:43.399Z,103091.50
2023-02-03T06:41:10.867Z,103096.41
2023-02-03T06:43:38.274Z,103104.53
2023-02-03T06:46:05.623Z,103107.06
2023-02-03T06:48:33.057Z,103104.63
2023-02-03T06:51:00.439Z,103106.41
2023-02-03T06:53:27.966Z,103102.84
2023-02-03T06:55:55.386Z,103108.72
2023-02-03T06:58:22.897Z,103111.09
2023-02-03T07:00:51.601Z,103109.75
2023-02-03T07:03:19.157Z,103114.97
2023-02-03T07:05:46.509Z,103112.22
2023-02-03T07:08:13.844Z,103112.59
2023-02-03T07:10:41.985Z,103113.34
2023-02-03T07:13:09.598Z,103109.84
2023-02-03T07:15:37.175Z,103115.88
2023-02-03T07:18:04.773Z,103110.56
2023-02-03T07:20:33.088Z,103112.22
2023-02-03T07:23:00.874Z,103114.06
2023-02-03T07:25:28.436Z,103126.28
2023-02-03T07:27:55.910Z,103128.81
2023-02-03T07:30:23.221Z,103132.19
2023-02-03T07:32:52.233Z,103128.75
2023-02-03T07:35:20.200Z,103125.41
2023-02-03T07:37:47.773Z,103134.34
2023-02-03T07:40:17.508Z,103145.44
2023-02-03T07:42:49.091Z,103148.13
2023-02-03T07:45:18.413Z,103151.91
2023-02-03T07:47:45.903Z,103151.97
2023-02-03T07:50:13.662Z,103154.50
2023-02-03T07:52:41.238Z,103149.28
2023-02-03T07:55:09.679Z,103155.63
2023-02-03T07:57:37.442Z,103161.75
2023-02-03T08:00:05.718Z,103157.56
2023-02-03T08:02:40.109Z,103164.56
2023-02-03T08:05:07.897Z,103164.72
2023-02-03T08:07:36.074Z,103159.66
2023-02-03T08:10:05.148Z,103169.44
2023-02-03T08:12:32.647Z,103170.44
2023-02-03T08:15:00.189Z,103170.66
2023-02-03T08:17:27.978Z,103177.09
2023-02-03T08:19:55.714Z,103180.75
2023-02-03T08:22:23.180Z,103181.03
2023-02-03T08:24:50.962Z,103183.16
2023-02-03T08:27:21.225Z,103182.50
2023-02-03T08:29:49.363Z,103201.50
2023-02-03T08:32:21.889Z,103197.34
2023-02-03T08:34:50.171Z,103191.66
2023-02-03T08:37:20.666Z,103200.94
2023-02-03T08:39:48.599Z,103203.09
2023-02-03T08:42:16.778Z,103211.97
2023-02-03T08:44:44.642Z,103214.88
2023-02-03T08:47:12.585Z,103212.41
2023-02-03T08:49:40.269Z,103205.53
2023-02-03T08:52:11.083Z,103212.69
2023-02-03T08:54:39.033Z,103208.91
2023-02-03T08:57:07.485Z,103216.50
2023-02-03T08:59:41.220Z,103223.16
2023-02-03T09:02:14.351Z,103222.06
2023-02-03T09:04:41.936Z,103231.44
2023-02-03T09:07:09.590Z,103235.75
2023-02-03T09:09:37.682Z,103237.38
2023-02-03T09:12:08.066Z,103232.97
2023-02-03T09:14:35.598Z,103231.81
2023-02-03T09:17:05.092Z,103242.34
2023-02-03T09:19:35.448Z,103233.81
2023-02-03T09:22:04.966Z,103236.72
2023-02-03T09:24:32.509Z,103233.16
2023-02-03T09:27:01.609Z,103236.41
2023-02-03T09:29:29.057Z,103249.56
2023-02-03T09:31:56.553Z,103250.47
2023-02-03T09:34:24.192Z,103248.75
2023-02-03T09:36:51.920Z,103258.50
2023-02-03T09:39:19.620Z,103248.28
2023-02-03T09:42:00.999Z,103249.53
2023-02-03T09:44:46.301Z,103247.88
2023-02-03T09:47:22.164Z,103260.56
2023-02-03T09:49:58.334Z,103255.25
2023-02-03T09:52:29.439Z,103246.78
2023-02-03T09:54:57.082Z,103246.78
2023-02-03T09:57:31.301Z,103247.75
2023-02-03T10:00:02.483Z,103248.19
2023-02-03T10:03:10.495Z,103256.34
2023-02-03T10:05:56.816Z,103244.94
2023-02-03T10:08:54.951Z,103239.69
2023-02-03T10:11:28.187Z,103239.88
2023-02-03T10:14:27.644Z,103236.66
2023-02-03T10:17:09.888Z,103238.19
2023-02-03T10:19:51.767Z,103244.88
2023-02-03T10:22:24.289Z,103254.06
2023-02-03T10:25:03.663Z,103260.47
2023-02-03T10:27:33.477Z,103260.41
2023-02-03T10:30:06.914Z,103257.78
2023-02-03T10:32:36.097Z,103252.63
2023-02-03T10:35:05.938Z,103257.88
2023-02-03T10:37:42.060Z,103252.63
2023-02-03T10:40:14.093Z,103254.06
2023-02-03T10:43:02.302Z,103247.91
2023-02-03T10:45:35.140Z,103252.22
2023-02-03T10:48:04.613Z,103260.03
2023-02-03T10:50:32.220Z,103256.78
2023-02-03T10:53:18.435Z,103253.75
2023-02-03T10:55:49.010Z,103245.50
2023-02-03T10:58:22.000Z,103245.00
2023-02-03T11:01:04.440Z,103240.78
2023-02-03T11:03:32.457Z,103248.59
2023-02-03T11:06:11.775Z,103244.91
2023-02-03T11:08:49.817Z,103248.28
2023-02-03T11:11:26.501Z,103254.25
2023-02-03T11:14:17.185Z,103248.75
2023-02-03T11:16:47.394Z,103246.97
2023-02-03T11:19:18.701Z,103237.53
2023-02-03T11:21:52.670Z,103247.75
2023-02-03T11:24:24.280Z,103241.84
2023-02-03T11:26:55.742Z,103243.09
2023-02-03T11:29:30.844Z,103234.50
2023-02-03T11:32:02.579Z,103228.47
2023-02-03T11:34:34.573Z,103234.75
2023-02-03T11:37:27.103Z,103225.81
2023-02-03T11:40:12.714Z,103235.16
2023-02-03T11:42:43.728Z,103226.47
2023-02-03T11:45:15.441Z,103218.63
2023-02-03T11:47:57.369Z,103214.91
2023-02-03T11:50:35.175Z,103218.25
2023-02-03T11:53:21.320Z,103212.63
2023-02-03T11:55:56.536Z,103218.38
2023-02-03T11:58:32.982Z,103217.44
2023-02-03T12:01:26.130Z,103217.97
2023-02-03T12:03:53.785Z,103219.28
2023-02-03T12:07:15.453Z,103217.88
2023-02-03T12:09:58.106Z,103213.72
2023-02-03T12:12:52.121Z,103222.03
2023-02-03T12:15:40.842Z,103219.78
2023-02-03T12:18:32.113Z,103220.13
2023-02-03T12:21:08.360Z,103205.94
2023-02-03T12:24:03.078Z,103209.66
2023-02-03T12:26:41.775Z,103205.06
2023-02-03T12:29:22.644Z,103208.47
2023-02-03T12:32:02.609Z,103205.78
2023-02-03T12:34:53.820Z,103204.69
2023-02-03T12:37:30.568Z,103213.41
2023-02-03T12:40:05.211Z,103207.66
2023-02-03T12:42:39.637Z,103214.47
2023-02-03T12:45:16.511Z,103217.94
2023-02-03T12:47:47.614Z,103209.53
2023-02-03T12:50:34.744Z,103203.41
2023-02-03T12:53:32.213Z,103203.03
2023-02-03T12:56:30.116Z,103211.38
2023-02-03T12:59:06.658Z,103207.75
2023-02-03T13:01:42.937Z,103207.84
2023-02-03T13:04:22.570Z,103205.44
2023-02-03T13:07:09.966Z,103206.81
2023-02-03T13:09:57.663Z,103207.91
2023-02-03T13:12:32.382Z,103212.63
2023-02-03T13:15:19.419Z,103202.75
2023-02-03T13:17:57.801Z,103196.50
2023-02-03T13:20:31.403Z,103184.28
2023-02-03T13:22:59.071Z,103183.22
2023-02-03T13:25:54.235Z,103177.72
2023-02-03T13:28:45.165Z,103178.56
2023-02-03T13:31:18.095Z,103176.59
2023-02-03T13:34:27.140Z,103168.84
2023-02-03T13:37:03.736Z,103168.78
2023-02-03T13:40:01.889Z,103168.06
2023-02-03T13:42:33.516Z,103170.78
2023-02-03T13:45:25.772Z,103163.31
2023-02-03T13:47:57.524Z,103159.50
2023-02-03T13:50:31.497Z,103160.75
2023-02-03T13:53:09.296Z,103154.88
2023-02-03T13:55:44.545Z,103161.22
2023-02-03T13:58:31.444Z,103160.53
2023-02-03T14:01:00.742Z,103153.84
2023-02-03T14:03:27.966Z,103152.16
2023-02-03T14:05:56.675Z,103155.78
2023-02-03T14:08:27.753Z,103145.84
2023-02-03T14:11:32.630Z,103137.78
2023-02-03T14:14:09.741Z,103146.38
2023-02-03T14:16:38.110Z,103134.09
2023-02-03T14:19:09.626Z,103143.75
2023-02-03T14:21:43.153Z,103148.03
2023-02-03T14:24:12.633Z,103152.50
2023-02-03T14:26:44.998Z,103148.47
2023-02-03T14:29:35.160Z,103150.38
2023-02-03T14:32:13.272Z,103144.53
2023-02-03T14:34:45.864Z,103152.47
2023-02-03T14:37:28.980Z,103145.63
2023-02-03T14:40:33.950Z,103148.34
2023-02-03T14:43:19.664Z,103138.78
2023-02-03T14:46:10.363Z,103140.63
2023-02-03T14:48:50.394Z,103142.09
2023-02-03T14:51:45.963Z,103137.59
2023-02-03T14:54:33.253Z,103143.84
2023-02-03T14:57:23.436Z,103137.66
2023-02-03T15:00:03.526Z,103139.59
2023-02-03T15:02:33.538Z,103134.22
2023-02-03T15:05:13.772Z,103139.38
2023-02-03T15:07:48.371Z,103138.75
2023-02-03T15:10:20.902Z,103130.31
2023-02-03T15:12:51.381Z,103137.09
2023-02-03T15:15:29.311Z,103135.47
2023-02-03T15:18:00.000Z,103137.72
2023-02-03T15:20:35.550Z,103140.94
2023-02-03T15:23:03.399Z,103137.41
2023-02-03T15:25:33.065Z,103143.44
2023-02-03T15:28:19.486Z,103144.84
2023-02-03T15:30:52.891Z,103142.28
2023-02-03T15:33:22.004Z,103141.38
2023-02-03T15:35:59.733Z,103150.56
2023-02-03T15:38:36.806Z,103146.16
2023-02-03T15:41:07.726Z,103153.38
2023-02-03T15:43:41.942Z,103155.28
2023-02-03T15:46:18.010Z,103159.31
2023-02-03T15:48:53.065Z,103156.69
2023-02-03T15:51:45.547Z,103161.09
2023-02-03T15:54:15.963Z,103163.44
2023-02-03T15:56:56.955Z,103165.88
2023-02-03T15:59:26.455Z,103166.88
2023-02-03T16:01:54.562Z,103170.81
2023-02-03T16:04:24.223Z,103167.16
2023-02-03T16:06:54.406Z,103167.97
2023-02-03T16:09:34.155Z,103171.31
2023-02-03T16:12:25.977Z,103180.06
2023-02-03T16:14:55.572Z,103180.72
2023-02-03T16:17:37.145Z,103181.44
2023-02-03T16:20:13.514Z,103184.69
2023-02-03T16:22:47.421Z,103186.50
2023-02-03T16:25:19.843Z,103191.91
2023-02-03T16:28:15.387Z,103192.28
2023-02-03T16:31:17.799Z,103187.56
2023-02-03T16:34:05.879Z,103193.69
2023-02-03T16:36:52.248Z,103199.19
2023-02-03T16:39:38.636Z,103198.53
2023-02-03T16:42:39.127Z,103198.69
2023-02-03T16:45:33.465Z,103198.69
2023-02-03T16:48:19.658Z,103202.31
2023-02-03T16:50:58.932Z,103208.38
2023-02-03T16:53:30.418Z,103207.69
2023-02-03T16:56:01.279Z,103204.16
2023-02-03T16:58:29.021Z,103207.69
2023-02-03T17:00:59.641Z,103203.09
2023-02-03T17:03:29.008Z,103205.47
2023-02-03T17:05:57.509Z,103203.69
2023-02-03T17:08:26.405Z,103214.59
2023-02-03T17:10:54.217Z,103213.13
2023-02-03T17:13:24.560Z,103222.19
2023-02-03T17:15:53.044Z,103220.19
2023-02-03T17:18:21.414Z,103225.25
2023-02-03T17:20:48.902Z,103223.97
2023-02-03T17:23:16.923Z,103225.25
2023-02-03T17:25:47.123Z,103225.00
2023-02-03T17:28:15.116Z,103233.75
2023-02-03T17:30:42.814Z,103234.25
2023-02-03T17:33:14.734Z,103233.81
2023-02-03T17:35:44.138Z,103239.59
2023-02-03T17:38:14.051Z,103230.91
2023-02-03T17:54:33.536Z,103246.53
2023-02-03T17:57:01.209Z,103244.34
2023-02-03T17:59:28.774Z,103240.91
2023-02-03T18:01:56.169Z,103239.28
2023-02-03T18:04:23.629Z,103241.25
2023-02-03T18:06:50.940Z,103242.97
2023-02-03T18:09:18.730Z,103246.25
2023-02-03T18:11:46.622Z,103248.47
2023-02-03T18:14:16.521Z,103247.03
2023-02-03T18:16:44.631Z,103255.34
2023-02-03T18:19:16.202Z,103248.13
2023-02-03T18:21:44.699Z,103250.47
2023-02-03T18:24:13.443Z,103249.44
2023-02-03T18:26:52.047Z,103244.56
2023-02-03T18:29:20.326Z,103252.41
2023-02-03T18:31:48.389Z,103252.81
2023-02-03T18:34:16.768Z,103256.31
2023-02-03T18:36:45.076Z,103254.25
2023-02-03T18:39:14.703Z,103253.50
2023-02-03T18:41:42.565Z,103253.28
2023-02-03T18:44:10.100Z,103257.63
2023-02-03T18:46:37.427Z,103263.91
2023-02-03T18:49:09.374Z,103263.97
2023-02-03T18:51:37.124Z,103260.66
2023-02-03T18:54:04.707Z,103263.75
2023-02-03T18:56:35.739Z,103251.16
2023-02-03T18:59:10.466Z,103264.56
2023-02-03T19:01:39.228Z,103267.81
2023-02-03T19:04:07.176Z,103273.75
2023-02-03T19:06:35.997Z,103271.38
2023-02-03T19:09:05.491Z,103270.22
2023-02-03T19:11:33.997Z,103272.84
2023-02-03T19:14:01.541Z,103279.94
2023-02-03T19:16:29.138Z,103277.19
2023-02-03T19:18:56.707Z,103280.97
2023-02-03T19:21:24.302Z,103283.66
2023-02-03T19:23:51.902Z,103276.69
2023-02-03T19:26:19.498Z,103287.03
2023-02-03T19:28:47.190Z,103287.31
2023-02-03T19:31:15.829Z,103284.72
2023-02-03T19:33:43.549Z,103286.50
2023-02-03T19:36:11.699Z,103276.56
2023-02-03T19:38:39.119Z,103284.34
2023-02-03T19:41:08.121Z,103294.75
2023-02-03T19:43:35.603Z,103296.47
2023-02-03T19:46:03.402Z,103302.13
2023-02-03T19:48:30.896Z,103297.47
2023-02-03T19:50:58.347Z,103292.88
2023-02-03T19:53:25.816Z,103290.66
2023-02-03T19:55:53.421Z,103291.69
2023-02-03T19:58:21.157Z,103295.91
2023-02-03T20:00:48.745Z,103294.22
2023-02-03T20:03:18.217Z,103300.81
2023-02-03T20:05:46.825Z,103304.06
2023-02-03T20:08:15.765Z,103291.78
2023-02-03T20:10:45.460Z,103295.91
2023-02-03T20:13:13.742Z,103294.63
2023-02-03T20:15:42.077Z,103306.31
2023-02-03T20:18:09.580Z,103305.34
2023-02-03T20:20:37.354Z,103308.09
2023-02-03T20:23:04.853Z,103297.91
2023-02-03T20:25:32.518Z,103303.00
2023-02-03T20:28:02.650Z,103310.03
2023-02-03T20:30:30.674Z,103304.13
2023-02-03T20:32:58.682Z,103311.94
2023-02-03T20:35:26.578Z,103308.28
2023-02-03T20:37:54.013Z,103311.53
2023-02-03T20:40:23.544Z,103302.53
2023-02-03T20:42:52.918Z,103298.97
2023-02-03T20:45:22.854Z,103299.78
2023-02-03T20:47:51.689Z,103296.34
2023-02-03T20:50:25.168Z,103307.63
2023-02-03T20:52:56.661Z,103308.34
2023-02-03T20:55:24.171Z,103311.88
2023-02-03T20:57:54.304Z,103303.34
2023-02-03T21:00:25.010Z,103302.09
2023-02-03T21:03:11.954Z,103305.53
2023-02-03T21:05:40.800Z,103297.13
2023-02-03T21:08:19.778Z,103308.69
2023-02-03T21:10:48.772Z,103311.88
2023-02-03T21:13:29.365Z,103310.69
2023-02-03T21:16:04.769Z,103298.84
2023-02-03T21:18:38.778Z,103295.81
2023-02-03T21:21:15.447Z,103307.31
2023-02-03T21:23:47.329Z,103306.44
2023-02-03T21:26:35.760Z,103310.28
2023-02-03T21:29:03.409Z,103311.59
2023-02-03T21:31:35.242Z,103307.53
2023-02-03T21:34:04.920Z,103296.66
2023-02-03T21:36:37.920Z,103300.16
2023-02-03T21:39:24.968Z,103306.13
2023-02-03T21:41:52.526Z,103307.34
2023-02-03T21:44:32.936Z,103301.22
2023-02-03T21:47:05.254Z,103301.22
2023-02-03T21:49:35.754Z,103306.03
2023-02-03T21:52:03.827Z,103304.41
2023-02-03T21:54:34.475Z,103305.69
2023-02-03T21:57:02.036Z,103304.38
2023-02-03T21:59:38.723Z,103309.28
2023-02-03T22:02:39.257Z,103316.31
2023-02-03T22:05:15.425Z,103309.41
2023-02-03T22:07:43.052Z,103308.09
2023-02-03T22:10:10.427Z,103313.88
2023-02-03T22:12:37.927Z,103306.66
2023-02-03T22:15:05.343Z,103309.44
2023-02-03T22:17:32.742Z,103310.50
2023-02-03T22:20:00.128Z,103314.84
2023-02-03T22:22:27.559Z,103318.16
2023-02-03T22:24:54.930Z,103309.44
2023-02-03T22:27:25.221Z,103313.13
2023-02-03T22:29:56.449Z,103318.84
2023-02-03T22:32:24.166Z,103315.56
2023-02-03T22:34:51.665Z,103320.72
2023-02-03T22:37:19.112Z,103317.13
2023-02-03T22:39:46.331Z,103323.41
2023-02-03T22:42:14.478Z,103319.75
2023-02-03T22:44:42.050Z,103318.84
2023-02-03T22:47:09.459Z,103317.13
2023-02-03T22:49:36.690Z,103314.75
2023-02-03T22:52:04.118Z,103320.19
2023-02-03T22:54:31.863Z,103315.03
2023-02-03T22:56:59.465Z,103314.50
2023-02-03T22:59:26.943Z,103317.81
2023-02-03T23:01:54.588Z,103322.00
2023-02-03T23:04:23.053Z,103327.22
2023-02-03T23:06:50.687Z,103329.84
2023-02-03T23:09:18.437Z,103329.00
2023-02-03T23:11:45.943Z,103329.00
2023-02-03T23:14:13.962Z,103335.88
2023-02-03T23:16:41.438Z,103334.03
2023-02-03T23:19:08.676Z,103339.09
2023-02-03T23:21:36.043Z,103332.91
2023-02-03T23:24:03.358Z,103339.91
2023-02-03T23:26:30.889Z,103350.31
2023-02-03T23:28:58.378Z,103346.72
2023-02-03T23:31:26.039Z,103343.44
2023-02-03T23:34:12.048Z,103343.34
2023-02-03T23:36:39.522Z,103349.56
2023-02-03T23:39:07.425Z,103342.28
2023-02-03T23:41:34.808Z,103345.97
2023-02-03T23:44:02.071Z,103340.00
2023-02-03T23:46:29.552Z,103337.47
2023-02-03T23:48:57.109Z,103334.78
2023-02-03T23:51:24.741Z,103337.25
2023-02-03T23:53:52.148Z,103340.97
2023-02-03T23:56:19.723Z,103344.09
2023-02-03T23:58:47.058Z,103347.38
